createdAt,value
2022-07-29T00:00:26.260Z,100148.13
2022-07-29T00:03:29.639Z,100155.22
2022-07-29T00:06:32.471Z,100152.63
2022-07-29T00:09:43.080Z,100155.81
2022-07-29T00:12:54.888Z,100148.13
2022-07-29T00:15:58.547Z,100144.53
2022-07-29T00:19:07.890Z,100138.75
2022-07-29T00:22:10.944Z,100149.28
2022-07-29T00:25:14.186Z,100141.59
2022-07-29T00:28:19.748Z,100149.69
2022-07-29T00:31:22.501Z,100144.88
2022-07-29T00:34:44.081Z,100143.84
2022-07-29T00:37:46.795Z,100140.47
2022-07-29T00:40:50.188Z,100136.44
2022-07-29T00:43:52.862Z,100133.28
2022-07-29T00:46:55.867Z,100142.06
2022-07-29T00:49:58.657Z,100138.25
2022-07-29T00:53:03.432Z,100147.47
2022-07-29T00:56:06.247Z,100140.25
2022-07-29T00:59:09.134Z,100135.44
2022-07-29T01:02:12.016Z,100137.00
2022-07-29T01:05:17.479Z,100136.88
2022-07-29T01:08:21.387Z,100139.13
2022-07-29T01:11:24.757Z,100137.78
2022-07-29T01:14:29.320Z,100139.69
2022-07-29T01:18:27.950Z,100137.53
2022-07-29T01:21:47.146Z,100135.97
2022-07-29T01:25:09.036Z,100140.34
2022-07-29T01:28:34.726Z,100144.75
2022-07-29T01:31:58.554Z,100137.75
2022-07-29T01:35:24.508Z,100136.53
2022-07-29T01:38:29.953Z,100143.06
2022-07-29T01:41:36.121Z,100144.53
2022-07-29T01:44:49.417Z,100141.81
2022-07-29T01:48:13.667Z,100137.28
2022-07-29T01:51:22.869Z,100144.63
2022-07-29T01:54:33.262Z,100147.88
2022-07-29T01:57:39.727Z,100147.34
2022-07-29T02:00:46.261Z,100151.41
2022-07-29T02:03:50.632Z,100139.38
2022-07-29T02:06:55.532Z,100127.75
2022-07-29T02:09:59.757Z,100132.41
2022-07-29T02:13:04.362Z,100130.34
2022-07-29T02:16:09.499Z,100141.16
2022-07-29T02:19:13.919Z,100140.50
2022-07-29T02:22:19.495Z,100142.63
2022-07-29T02:25:24.568Z,100142.19
2022-07-29T02:28:30.499Z,100135.97
2022-07-29T02:31:35.695Z,100134.38
2022-07-29T02:34:39.960Z,100138.91
2022-07-29T02:37:45.627Z,100138.00
2022-07-29T02:40:51.455Z,100132.25
2022-07-29T02:44:00.011Z,100132.37
2022-07-29T02:47:23.178Z,100138.41
2022-07-29T02:50:33.697Z,100137.25
2022-07-29T02:53:39.550Z,100142.16
2022-07-29T02:56:44.606Z,100139.94
2022-07-29T02:59:51.041Z,100129.81
2022-07-29T03:02:55.979Z,100137.75
2022-07-29T03:06:02.097Z,100135.59
2022-07-29T03:09:10.468Z,100134.31
2022-07-29T03:12:17.117Z,100136.84
2022-07-29T03:15:20.710Z,100137.12
2022-07-29T03:18:26.973Z,100142.37
2022-07-29T03:21:29.887Z,100136.66
2022-07-29T03:24:35.301Z,100140.16
2022-07-29T03:27:38.386Z,100145.22
2022-07-29T03:30:41.493Z,100140.69
2022-07-29T03:33:47.140Z,100144.66
2022-07-29T03:36:50.683Z,100159.25
2022-07-29T03:39:56.838Z,100152.69
2022-07-29T03:43:02.118Z,100143.97
2022-07-29T03:46:08.789Z,100148.16
2022-07-29T03:49:13.194Z,100142.28
2022-07-29T03:52:16.347Z,100143.81
2022-07-29T03:55:19.368Z,100154.84
2022-07-29T03:58:22.941Z,100151.81
2022-07-29T04:01:27.312Z,100157.91
2022-07-29T04:04:34.508Z,100158.28
2022-07-29T04:07:37.153Z,100157.03
2022-07-29T04:10:40.251Z,100156.47
2022-07-29T04:13:43.171Z,100156.69
2022-07-29T04:16:46.081Z,100158.63
2022-07-29T04:19:48.767Z,100156.13
2022-07-29T04:22:51.699Z,100153.97
2022-07-29T04:25:54.388Z,100151.97
2022-07-29T04:28:57.392Z,100165.66
2022-07-29T04:32:00.056Z,100164.19
2022-07-29T04:35:03.127Z,100161.09
2022-07-29T04:38:06.910Z,100157.28
2022-07-29T04:41:09.930Z,100163.25
2022-07-29T04:44:14.227Z,100164.53
2022-07-29T04:47:17.306Z,100159.31
2022-07-29T04:50:20.021Z,100166.06
2022-07-29T04:53:23.155Z,100163.50
2022-07-29T04:56:25.982Z,100161.88
2022-07-29T04:59:29.070Z,100165.41
2022-07-29T05:02:31.822Z,100172.84
2022-07-29T05:05:34.946Z,100169.84
2022-07-29T05:08:38.004Z,100177.78
2022-07-29T05:11:41.016Z,100176.28
2022-07-29T05:14:43.813Z,100177.94
2022-07-29T05:17:46.830Z,100177.91
2022-07-29T05:20:49.451Z,100171.84
2022-07-29T05:23:52.993Z,100171.47
2022-07-29T05:26:55.658Z,100172.47
2022-07-29T05:29:58.693Z,100176.94
2022-07-29T05:33:01.388Z,100172.41
2022-07-29T05:36:07.770Z,100181.59
2022-07-29T05:39:10.822Z,100173.91
2022-07-29T05:42:13.714Z,100185.09
2022-07-29T05:45:16.347Z,100179.37
2022-07-29T05:48:19.268Z,100181.12
2022-07-29T05:51:22.054Z,100174.22
2022-07-29T05:54:25.383Z,100175.94
2022-07-29T05:57:28.081Z,100178.25
2022-07-29T06:00:31.248Z,100176.84
2022-07-29T06:03:35.688Z,100181.75
2022-07-29T06:06:38.397Z,100180.44
2022-07-29T06:09:41.409Z,100185.53
2022-07-29T06:12:44.109Z,100188.41
2022-07-29T06:15:47.514Z,100191.66
2022-07-29T06:18:50.291Z,100196.84
2022-07-29T06:21:53.235Z,100196.84
2022-07-29T06:24:55.904Z,100193.25
2022-07-29T06:27:59.178Z,100194.94
2022-07-29T06:31:01.954Z,100202.22
2022-07-29T06:34:05.399Z,100197.28
2022-07-29T06:37:09.448Z,100196.97
2022-07-29T06:40:37.938Z,100198.19
2022-07-29T06:43:52.139Z,100205.59
2022-07-29T06:46:58.176Z,100209.97
2022-07-29T06:50:01.002Z,100204.09
2022-07-29T06:53:04.484Z,100203.72
2022-07-29T06:56:13.649Z,100203.69
2022-07-29T06:59:16.612Z,100200.66
2022-07-29T07:02:20.596Z,100190.09
2022-07-29T07:05:26.072Z,100192.84
2022-07-29T07:08:28.952Z,100201.41
2022-07-29T07:11:31.942Z,100198.50
2022-07-29T07:14:35.576Z,100201.91
2022-07-29T07:17:38.770Z,100196.16
2022-07-29T07:20:42.193Z,100203.16
2022-07-29T07:23:45.120Z,100203.19
2022-07-29T07:26:47.830Z,100200.97
2022-07-29T07:29:50.919Z,100205.59
2022-07-29T07:32:54.132Z,100200.63
2022-07-29T07:35:57.107Z,100200.69
2022-07-29T07:39:00.092Z,100196.25
2022-07-29T07:42:03.281Z,100196.75
2022-07-29T07:45:16.214Z,100201.44
2022-07-29T07:48:19.851Z,100198.00
2022-07-29T07:51:22.506Z,100185.94
2022-07-29T07:54:25.470Z,100195.00
2022-07-29T07:57:28.394Z,100190.31
2022-07-29T08:00:31.358Z,100192.50
2022-07-29T08:03:34.618Z,100194.69
2022-07-29T08:06:40.627Z,100193.16
2022-07-29T08:09:44.430Z,100193.56
2022-07-29T08:12:47.115Z,100190.44
2022-07-29T08:15:58.890Z,100191.91
2022-07-29T08:19:01.890Z,100188.50
2022-07-29T08:22:04.941Z,100187.41
2022-07-29T08:25:07.983Z,100191.72
2022-07-29T08:28:11.747Z,100185.84
2022-07-29T08:31:15.060Z,100188.88
2022-07-29T08:34:18.188Z,100193.88
2022-07-29T08:37:21.419Z,100190.88
2022-07-29T08:40:32.307Z,100191.56
2022-07-29T08:43:38.423Z,100184.56
2022-07-29T08:46:43.021Z,100186.94
2022-07-29T08:49:48.081Z,100191.69
2022-07-29T08:52:54.413Z,100187.00
2022-07-29T08:55:59.702Z,100183.13
2022-07-29T08:59:06.754Z,100177.41
2022-07-29T09:02:20.267Z,100180.75
2022-07-29T09:05:25.013Z,100174.81
2022-07-29T09:08:29.178Z,100168.19
2022-07-29T09:11:34.170Z,100176.97
2022-07-29T09:14:36.936Z,100168.63
2022-07-29T09:17:48.612Z,100169.47
2022-07-29T09:21:12.119Z,100165.84
2022-07-29T09:24:15.165Z,100165.28
2022-07-29T09:27:23.630Z,100164.22
2022-07-29T09:30:31.672Z,100165.22
2022-07-29T09:33:36.687Z,100160.91
2022-07-29T09:36:41.752Z,100161.28
2022-07-29T09:39:47.235Z,100146.50
2022-07-29T09:42:51.812Z,100162.13
2022-07-29T09:45:55.293Z,100152.47
2022-07-29T09:49:15.245Z,100145.06
2022-07-29T09:52:18.011Z,100138.72
2022-07-29T09:55:21.007Z,100142.97
2022-07-29T09:58:24.094Z,100144.56
2022-07-29T10:01:30.392Z,100141.59
2022-07-29T10:04:41.994Z,100141.97
2022-07-29T10:07:57.428Z,100138.44
2022-07-29T10:11:20.057Z,100130.72
2022-07-29T10:14:22.933Z,100134.59
2022-07-29T10:17:25.909Z,100136.34
2022-07-29T10:20:29.154Z,100125.31
2022-07-29T10:23:46.458Z,100129.09
2022-07-29T10:26:50.522Z,100126.03
2022-07-29T10:29:55.027Z,100121.34
2022-07-29T10:33:22.765Z,100117.12
2022-07-29T10:36:48.692Z,100119.91
2022-07-29T10:40:24.395Z,100121.72
2022-07-29T10:43:37.052Z,100109.34
2022-07-29T10:46:41.972Z,100114.63
2022-07-29T10:50:01.441Z,100114.59
2022-07-29T10:53:04.962Z,100105.66
2022-07-29T10:56:32.009Z,100098.59
2022-07-29T10:59:36.350Z,100096.72
2022-07-29T11:02:43.943Z,100090.63
2022-07-29T11:05:59.700Z,100097.25
2022-07-29T11:09:25.573Z,100083.59
2022-07-29T11:12:38.712Z,100078.50
2022-07-29T11:15:56.336Z,100080.53
2022-07-29T11:19:14.766Z,100066.50
2022-07-29T11:22:42.991Z,100069.94
2022-07-29T11:26:23.184Z,100066.06
2022-07-29T11:29:27.484Z,100062.12
2022-07-29T11:32:48.463Z,100059.03
2022-07-29T11:36:16.872Z,100049.97
2022-07-29T11:39:36.980Z,100061.84
2022-07-29T11:46:05.904Z,100043.28
2022-07-29T11:49:15.393Z,100041.19
2022-07-29T11:52:20.180Z,100039.59
2022-07-29T11:55:32.665Z,100040.41
2022-07-29T11:58:38.330Z,100042.66
2022-07-29T12:02:06.671Z,100035.94
2022-07-29T12:05:36.472Z,100041.34
2022-07-29T12:08:44.179Z,100037.41
2022-07-29T12:11:48.516Z,100038.31
2022-07-29T12:14:52.269Z,100028.88
2022-07-29T12:17:56.141Z,100033.13
2022-07-29T12:21:03.520Z,100026.00
2022-07-29T12:24:09.509Z,100016.81
2022-07-29T12:27:13.082Z,100017.31
2022-07-29T12:30:17.770Z,100011.28
2022-07-29T12:33:23.623Z,100002.59
2022-07-29T12:36:26.623Z,100009.16
2022-07-29T12:39:30.701Z,100000.63
2022-07-29T12:42:34.327Z,99991.72
2022-07-29T12:45:41.779Z,99997.25
2022-07-29T12:48:44.940Z,99986.97
2022-07-29T12:51:47.811Z,99994.84
2022-07-29T12:54:51.363Z,99985.37
2022-07-29T12:57:54.643Z,99978.87
2022-07-29T13:01:17.380Z,99977.28
2022-07-29T13:04:28.731Z,99969.59
2022-07-29T13:07:54.287Z,99977.22
2022-07-29T13:10:56.032Z,99970.59
2022-07-29T13:14:06.873Z,99963.78
2022-07-29T13:17:16.802Z,99965.06
2022-07-29T13:20:24.519Z,99960.47
2022-07-29T13:23:27.248Z,99953.81
2022-07-29T13:26:30.251Z,99955.41
2022-07-29T13:29:33.315Z,99950.72
2022-07-29T13:32:40.392Z,99958.47
2022-07-29T13:35:44.516Z,99951.41
2022-07-29T13:38:47.598Z,99941.75
2022-07-29T13:41:50.555Z,99937.66
2022-07-29T13:44:54.262Z,99940.66
2022-07-29T13:47:57.032Z,99930.78
2022-07-29T13:51:00.580Z,99928.47
2022-07-29T13:54:03.508Z,99922.28
2022-07-29T13:57:06.602Z,99923.53
2022-07-29T14:00:10.663Z,99922.81
2022-07-29T14:03:13.747Z,99917.84
2022-07-29T14:06:16.527Z,99916.16
2022-07-29T14:09:21.587Z,99910.72
2022-07-29T14:12:24.494Z,99914.06
2022-07-29T14:15:27.455Z,99914.50
2022-07-29T14:18:30.218Z,99899.72
2022-07-29T14:21:33.975Z,99902.87
2022-07-29T14:24:37.825Z,99894.16
2022-07-29T14:27:40.860Z,99901.84
2022-07-29T14:30:44.663Z,99884.59
2022-07-29T14:33:49.430Z,99877.84
2022-07-29T14:36:52.190Z,99893.44
2022-07-29T14:40:00.407Z,99887.25
2022-07-29T14:43:03.842Z,99888.34
2022-07-29T14:46:11.215Z,99883.78
2022-07-29T14:49:13.992Z,99885.56
2022-07-29T14:52:17.058Z,99879.63
2022-07-29T14:55:20.347Z,99878.84
2022-07-29T14:58:23.777Z,99872.00
2022-07-29T15:01:26.728Z,99869.88
2022-07-29T15:04:29.931Z,99865.69
2022-07-29T15:07:32.922Z,99862.66
2022-07-29T15:10:36.235Z,99861.91
2022-07-29T15:13:38.886Z,99861.81
2022-07-29T15:16:44.043Z,99855.66
2022-07-29T15:19:49.531Z,99857.75
2022-07-29T15:22:52.551Z,99858.63
2022-07-29T15:25:55.239Z,99842.38
2022-07-29T15:28:58.363Z,99850.88
2022-07-29T15:32:02.607Z,99857.41
2022-07-29T15:35:06.336Z,99849.37
2022-07-29T15:38:09.427Z,99842.53
2022-07-29T15:41:15.448Z,99845.03
2022-07-29T15:44:18.750Z,99845.88
2022-07-29T15:47:21.930Z,99835.66
2022-07-29T15:50:24.721Z,99836.56
2022-07-29T15:53:27.819Z,99835.47
2022-07-29T15:56:31.352Z,99836.03
2022-07-29T15:59:34.895Z,99829.75
2022-07-29T16:02:38.086Z,99827.28
2022-07-29T16:05:41.367Z,99820.88
2022-07-29T16:08:44.364Z,99828.84
2022-07-29T16:11:50.796Z,99822.66
2022-07-29T16:14:53.650Z,99818.47
2022-07-29T16:17:56.803Z,99827.75
2022-07-29T16:20:59.535Z,99821.34
2022-07-29T16:24:03.459Z,99817.59
2022-07-29T16:27:06.883Z,99806.19
2022-07-29T16:30:10.305Z,99803.03
2022-07-29T16:33:13.049Z,99799.72
2022-07-29T16:36:18.819Z,99790.31
2022-07-29T16:39:21.665Z,99796.59
2022-07-29T16:42:44.447Z,99799.66
2022-07-29T16:45:47.558Z,99797.81
2022-07-29T16:48:50.646Z,99794.97
2022-07-29T16:51:53.880Z,99799.25
2022-07-29T16:54:56.875Z,99800.31
2022-07-29T16:58:00.692Z,99795.84
2022-07-29T17:01:04.079Z,99801.34
2022-07-29T17:04:06.988Z,99785.81
2022-07-29T17:07:10.034Z,99799.66
2022-07-29T17:10:12.762Z,99791.94
2022-07-29T17:13:15.816Z,99784.47
2022-07-29T17:16:19.752Z,99791.72
2022-07-29T17:19:22.845Z,99784.62
2022-07-29T17:22:25.634Z,99785.06
2022-07-29T17:25:28.655Z,99785.75
2022-07-29T17:28:31.376Z,99790.50
2022-07-29T17:31:34.433Z,99792.00
2022-07-29T17:34:38.818Z,99792.09
2022-07-29T17:37:41.778Z,99793.00
2022-07-29T17:40:44.506Z,99794.13
2022-07-29T17:43:48.662Z,99795.13
2022-07-29T17:46:51.468Z,99794.72
2022-07-29T17:49:54.766Z,99791.84
2022-07-29T17:52:57.648Z,99791.38
2022-07-29T17:56:00.775Z,99800.59
2022-07-29T17:59:06.722Z,99804.09
2022-07-29T18:02:10.110Z,99808.41
2022-07-29T18:05:13.176Z,99815.28
2022-07-29T18:08:19.854Z,99812.28
2022-07-29T18:11:23.608Z,99810.87
2022-07-29T18:14:26.539Z,99811.81
2022-07-29T18:17:52.861Z,99806.78
2022-07-29T18:20:52.521Z,99807.59
2022-07-29T18:23:55.516Z,99811.94
2022-07-29T18:26:58.476Z,99814.41
2022-07-29T18:30:03.551Z,99811.13
2022-07-29T18:33:22.757Z,99814.34
2022-07-29T18:36:26.103Z,99817.16
2022-07-29T18:39:29.019Z,99817.66
2022-07-29T18:42:32.510Z,99822.00
2022-07-29T18:45:35.619Z,99820.84
2022-07-29T18:48:42.798Z,99832.22
2022-07-29T18:51:45.731Z,99824.88
2022-07-29T18:54:48.789Z,99831.94
2022-07-29T18:57:55.132Z,99828.81
2022-07-29T19:01:00.660Z,99832.31
2022-07-29T19:04:04.547Z,99829.31
2022-07-29T19:07:07.685Z,99837.88
2022-07-29T19:10:11.303Z,99841.09
2022-07-29T19:13:14.700Z,99846.94
2022-07-29T19:16:18.499Z,99839.91
2022-07-29T19:19:21.640Z,99841.94
2022-07-29T19:22:24.759Z,99838.88
2022-07-29T19:25:27.779Z,99837.00
2022-07-29T19:28:30.734Z,99844.41
2022-07-29T19:31:34.119Z,99833.09
2022-07-29T19:34:37.478Z,99837.03
2022-07-29T19:37:40.574Z,99840.13
2022-07-29T19:40:43.668Z,99849.09
2022-07-29T19:43:51.327Z,99842.47
2022-07-29T19:46:55.667Z,99835.06
2022-07-29T19:50:00.556Z,99835.84
2022-07-29T19:53:03.292Z,99833.09
2022-07-29T19:56:06.345Z,99838.12
2022-07-29T19:59:11.893Z,99842.41
2022-07-29T20:02:15.746Z,99841.25
2022-07-29T20:05:19.285Z,99834.59
2022-07-29T20:08:22.154Z,99829.12
2022-07-29T20:11:26.469Z,99838.50
2022-07-29T20:14:29.171Z,99838.47
2022-07-29T20:17:32.253Z,99843.13
2022-07-29T20:20:42.637Z,99838.81
2022-07-29T20:23:46.093Z,99833.00
2022-07-29T20:26:50.261Z,99842.34
2022-07-29T20:29:53.321Z,99842.34
2022-07-29T20:32:56.090Z,99836.50
2022-07-29T20:35:59.056Z,99843.13
2022-07-29T20:39:02.188Z,99840.00
2022-07-29T20:42:05.951Z,99845.50
2022-07-29T20:45:09.478Z,99846.22
2022-07-29T20:48:13.920Z,99845.03
2022-07-29T20:51:16.725Z,99856.31
2022-07-29T20:54:19.854Z,99863.75
2022-07-29T20:57:38.448Z,99880.03
2022-07-29T21:00:42.682Z,99874.94
2022-07-29T21:03:45.405Z,99870.19
2022-07-29T21:06:48.394Z,99871.72
2022-07-29T21:09:51.246Z,99875.94
2022-07-29T21:12:54.309Z,99887.03
2022-07-29T21:16:04.253Z,99897.25
2022-07-29T21:19:09.372Z,99898.47
2022-07-29T21:22:12.646Z,99890.66
2022-07-29T21:25:15.839Z,99880.63
2022-07-29T21:28:27.593Z,99887.63
2022-07-29T21:31:30.615Z,99885.31
2022-07-29T21:34:33.314Z,99890.72
2022-07-29T21:37:36.268Z,99890.66
2022-07-29T21:40:39.325Z,99899.19
2022-07-29T21:43:46.478Z,99897.69
2022-07-29T21:46:49.473Z,99900.03
2022-07-29T21:49:53.056Z,99902.31
2022-07-29T21:52:55.884Z,99903.09
2022-07-29T21:55:58.940Z,99912.44
2022-07-29T21:59:02.118Z,99907.38
2022-07-29T22:02:05.105Z,99898.84
2022-07-29T22:05:08.720Z,99901.56
2022-07-29T22:08:11.578Z,99897.31
2022-07-29T22:11:14.536Z,99903.09
2022-07-29T22:14:18.396Z,99895.31
2022-07-29T22:17:21.435Z,99905.28
2022-07-29T22:20:24.309Z,99903.44
2022-07-29T22:23:27.253Z,99898.72
2022-07-29T22:26:29.956Z,99904.09
2022-07-29T22:29:32.862Z,99898.25
2022-07-29T22:32:35.755Z,99895.56
2022-07-29T22:35:38.757Z,99891.53
2022-07-29T22:38:41.498Z,99890.66
2022-07-29T22:41:44.535Z,99877.25
2022-07-29T22:44:47.138Z,99876.81
2022-07-29T22:47:53.475Z,99876.66
2022-07-29T22:51:01.703Z,99889.66
2022-07-29T22:54:05.056Z,99877.84
2022-07-29T22:57:07.743Z,99872.00
2022-07-29T23:00:11.609Z,99872.56
2022-07-29T23:03:14.382Z,99870.91
2022-07-29T23:06:17.312Z,99869.50
2022-07-29T23:09:20.034Z,99865.75
2022-07-29T23:12:23.000Z,99866.44
2022-07-29T23:15:25.945Z,99864.81
2022-07-29T23:18:29.068Z,99869.69
2022-07-29T23:21:31.712Z,99871.78
2022-07-29T23:24:34.630Z,99877.69
2022-07-29T23:27:37.340Z,99873.16
2022-07-29T23:30:41.279Z,99868.09
2022-07-29T23:33:43.976Z,99860.97
2022-07-29T23:36:46.937Z,99868.66
2022-07-29T23:39:49.632Z,99871.47
2022-07-29T23:42:52.684Z,99861.03
2022-07-29T23:45:56.362Z,99858.84
2022-07-29T23:49:01.304Z,99853.69
2022-07-29T23:52:04.198Z,99842.78
2022-07-29T23:55:37.099Z,99835.47
2022-07-29T23:58:30.282Z,99831.41
